createdAt,value
2022-08-03T04:32:55.104Z,84.07
2022-08-03T04:33:56.029Z,84.07
2022-08-03T04:34:55.996Z,84.07
2022-08-03T04:36:01.801Z,84.07
2022-08-03T04:36:56.046Z,84.13
2022-08-03T04:37:55.970Z,83.93
2022-08-03T04:38:55.944Z,83.72
2022-08-03T04:39:57.630Z,83.62
2022-08-03T04:40:55.905Z,83.62
2022-08-03T04:42:04.275Z,83.52
2022-08-03T04:42:55.890Z,83.52
2022-08-03T04:43:55.889Z,83.52
2022-08-03T04:45:00.868Z,83.42
2022-08-03T04:45:55.900Z,83.52
2022-08-03T04:46:55.857Z,83.62
2022-08-03T04:47:55.825Z,83.62
2022-08-03T04:48:55.905Z,83.62
2022-08-03T04:49:55.814Z,83.42
2022-08-03T04:50:55.802Z,83.42
2022-08-03T04:51:55.813Z,83.42
2022-08-03T04:52:55.790Z,83.32
2022-08-03T04:53:55.784Z,83.22
2022-08-03T04:54:55.770Z,83.32
2022-08-03T04:55:55.810Z,83.32
2022-08-03T04:56:55.728Z,83.32
2022-08-03T04:57:55.730Z,83.22
2022-08-03T04:58:55.742Z,83.32
2022-08-03T05:00:01.959Z,83.22
2022-08-03T05:00:55.709Z,82.98
2022-08-03T05:01:55.725Z,82.98
2022-08-03T05:02:55.716Z,82.88
2022-08-03T05:03:55.691Z,82.78
2022-08-03T05:04:55.655Z,82.78
2022-08-03T05:06:01.473Z,82.78
2022-08-03T05:06:55.944Z,82.68
2022-08-03T05:07:55.615Z,82.68
2022-08-03T05:08:55.604Z,82.68
2022-08-03T05:10:03.016Z,82.48
2022-08-03T05:10:55.590Z,82.58
2022-08-03T05:11:55.579Z,82.58
2022-08-03T05:12:55.567Z,82.48
2022-08-03T05:13:55.587Z,82.38
2022-08-03T05:14:55.569Z,82.38
2022-08-03T05:15:55.526Z,82.18
2022-08-03T05:16:55.521Z,82.04
2022-08-03T05:17:55.503Z,82.04
2022-08-03T05:18:55.487Z,81.93
2022-08-03T05:19:55.502Z,81.84
2022-08-03T05:20:55.463Z,81.93
2022-08-03T05:21:55.489Z,81.73
2022-08-03T05:23:02.095Z,81.63
2022-08-03T05:23:55.443Z,81.84
2022-08-03T05:24:55.443Z,81.73
2022-08-03T05:25:55.418Z,81.73
2022-08-03T05:26:55.399Z,81.53
2022-08-03T05:27:55.396Z,81.39
2022-08-03T05:28:55.394Z,81.19
2022-08-03T05:29:55.376Z,80.99
2022-08-03T05:30:55.353Z,80.89
2022-08-03T05:31:55.355Z,80.79
2022-08-03T05:32:55.358Z,80.79
2022-08-03T05:33:55.380Z,80.79
2022-08-03T05:34:55.324Z,80.49
2022-08-03T05:36:01.622Z,80.35
2022-08-03T05:36:55.288Z,80.25
2022-08-03T05:37:55.279Z,80.15
2022-08-03T05:38:58.471Z,79.85
2022-08-03T05:39:55.252Z,79.94
2022-08-03T05:40:57.664Z,79.94
2022-08-03T05:41:55.239Z,79.54
2022-08-03T05:42:55.268Z,79.44
2022-08-03T05:43:55.213Z,79.24
2022-08-03T05:44:56.561Z,79.41
2022-08-03T05:46:12.178Z,79.30
2022-08-03T05:46:55.191Z,79.10
2022-08-03T05:47:55.177Z,79.00
2022-08-03T05:48:55.201Z,78.80
2022-08-03T05:49:55.153Z,78.70
2022-08-03T05:50:55.154Z,78.80
2022-08-03T05:52:00.071Z,78.70
2022-08-03T05:52:55.134Z,78.27
2022-08-03T05:53:55.120Z,78.16
2022-08-03T05:54:56.389Z,77.96
2022-08-03T05:55:59.225Z,77.96
2022-08-03T05:56:55.080Z,77.76
2022-08-03T05:57:55.272Z,77.66
2022-08-03T05:58:55.999Z,77.52
2022-08-03T05:59:58.208Z,77.52
2022-08-03T06:00:55.010Z,77.32
2022-08-03T06:01:55.043Z,77.32
2022-08-03T06:02:55.662Z,76.92
2022-08-03T06:03:54.993Z,76.98
2022-08-03T06:04:55.037Z,76.68
2022-08-03T06:05:59.982Z,76.28
2022-08-03T06:06:54.955Z,76.38
2022-08-03T06:07:54.956Z,76.18
2022-08-03T06:08:54.952Z,75.84
2022-08-03T06:10:34.109Z,75.74
2022-08-03T06:10:54.914Z,75.74
2022-08-03T06:11:54.882Z,75.45
2022-08-03T06:12:54.876Z,74.74
2022-08-03T06:13:54.866Z,74.71
2022-08-03T06:14:54.891Z,74.51
2022-08-03T06:15:54.846Z,74.20
2022-08-03T06:16:54.852Z,74.01
2022-08-03T06:17:58.678Z,73.77
2022-08-03T06:18:54.828Z,73.57
2022-08-03T06:19:54.790Z,73.57
2022-08-03T06:20:55.022Z,73.57
2022-08-03T06:21:54.775Z,73.16
2022-08-03T06:23:00.144Z,72.83
2022-08-03T06:23:55.702Z,72.53
2022-08-03T06:24:54.790Z,72.53
2022-08-03T06:25:54.779Z,72.53
2022-08-03T06:26:54.721Z,72.63
2022-08-03T06:27:54.718Z,72.63
2022-08-03T06:28:55.134Z,72.73
2022-08-03T06:29:54.692Z,72.33
2022-08-03T06:30:54.683Z,72.39
2022-08-03T06:31:54.666Z,72.50
2022-08-03T06:32:54.657Z,71.89
2022-08-03T06:34:32.916Z,72.00
2022-08-03T06:34:54.727Z,71.89
2022-08-03T06:35:54.663Z,71.89
2022-08-03T06:36:58.590Z,71.66
2022-08-03T06:37:54.602Z,71.56
2022-08-03T06:38:54.612Z,71.56
2022-08-03T06:39:54.646Z,71.56
2022-08-03T06:40:54.597Z,71.56
2022-08-03T06:41:54.555Z,71.56
2022-08-03T06:42:54.552Z,71.46
2022-08-03T06:44:03.363Z,71.23
2022-08-03T06:44:54.527Z,71.03
2022-08-03T06:45:54.575Z,70.92
2022-08-03T06:46:54.486Z,70.83
2022-08-03T06:47:54.476Z,70.83
2022-08-03T06:48:54.522Z,70.49
2022-08-03T06:50:16.673Z,70.29
2022-08-03T06:50:54.460Z,70.09
2022-08-03T06:52:37.461Z,69.99
2022-08-03T06:52:54.472Z,69.79
2022-08-03T06:53:54.426Z,69.79
2022-08-03T06:54:54.424Z,69.69
2022-08-03T06:55:55.335Z,69.76
2022-08-03T06:56:54.383Z,69.56
2022-08-03T06:57:54.375Z,69.56
2022-08-03T06:58:54.374Z,69.36
2022-08-03T07:00:09.354Z,69.46
2022-08-03T07:00:54.367Z,69.32
2022-08-03T07:01:54.344Z,69.43
2022-08-03T07:02:58.127Z,69.02
2022-08-03T07:03:54.351Z,68.49
2022-08-03T07:04:54.294Z,68.40
2022-08-03T07:05:54.275Z,68.40
2022-08-03T07:06:54.376Z,68.29
2022-08-03T07:07:54.282Z,68.10
2022-08-03T07:08:59.006Z,68.16
2022-08-03T07:09:57.697Z,67.96
2022-08-03T07:10:54.251Z,67.66
2022-08-03T07:11:54.221Z,67.76
2022-08-03T07:12:56.594Z,67.66
2022-08-03T07:13:54.209Z,67.66
2022-08-03T07:14:59.586Z,67.46
2022-08-03T07:15:56.112Z,67.36
2022-08-03T07:16:54.177Z,67.33
2022-08-03T07:17:54.162Z,67.13
2022-08-03T07:18:54.151Z,67.23
2022-08-03T07:19:54.131Z,67.33
2022-08-03T07:20:54.142Z,67.23
2022-08-03T07:21:54.365Z,67.03
2022-08-03T07:22:54.180Z,66.80
2022-08-03T07:23:54.084Z,66.80
2022-08-03T07:24:54.074Z,66.60
2022-08-03T07:25:54.091Z,66.40
2022-08-03T07:26:54.056Z,66.40
2022-08-03T07:27:54.074Z,66.47
2022-08-03T07:28:54.044Z,66.47
2022-08-03T07:29:54.072Z,66.27
2022-08-03T07:30:54.015Z,66.17
2022-08-03T07:31:54.004Z,66.27
2022-08-03T07:32:54.221Z,66.17
2022-08-03T07:33:53.979Z,66.04
2022-08-03T07:34:58.508Z,65.64
2022-08-03T07:35:53.946Z,65.74
2022-08-03T07:36:53.960Z,65.64
2022-08-03T07:37:54.492Z,65.61
2022-08-03T07:38:53.933Z,65.41
2022-08-03T07:39:53.936Z,65.11
2022-08-03T07:40:53.910Z,64.48
2022-08-03T07:41:53.913Z,64.39
2022-08-03T07:42:53.872Z,64.39
2022-08-03T07:43:53.884Z,64.28
2022-08-03T07:44:53.847Z,64.58
2022-08-03T07:45:53.863Z,64.69
2022-08-03T07:46:53.832Z,64.25
2022-08-03T07:47:54.355Z,64.06
2022-08-03T07:48:53.843Z,63.95
2022-08-03T07:49:53.799Z,63.85
2022-08-03T07:50:53.796Z,63.85
2022-08-03T07:51:53.771Z,63.76
2022-08-03T07:52:53.808Z,63.82
2022-08-03T07:53:53.750Z,63.43
2022-08-03T07:54:53.762Z,62.90
2022-08-03T07:55:53.742Z,62.50
2022-08-03T07:56:53.723Z,62.40
2022-08-03T07:57:53.713Z,62.10
2022-08-03T07:58:53.721Z,61.61
2022-08-03T08:00:01.450Z,61.78
2022-08-03T08:02:04.423Z,61.58
2022-08-03T08:03:05.354Z,61.28
2022-08-03T08:04:05.334Z,60.96
2022-08-03T08:05:05.996Z,60.75
2022-08-03T08:06:05.299Z,60.96
2022-08-03T08:07:05.290Z,60.75
2022-08-03T08:08:05.374Z,60.72
2022-08-03T08:09:05.268Z,60.72
2022-08-03T08:10:05.254Z,60.83
2022-08-03T08:11:05.256Z,60.10
2022-08-03T08:12:05.257Z,59.31
2022-08-03T08:13:05.219Z,59.41
2022-08-03T08:14:05.218Z,59.61
2022-08-03T08:15:05.224Z,59.61
2022-08-03T08:16:05.200Z,59.18
2022-08-03T08:17:07.346Z,59.08
2022-08-03T08:18:05.190Z,58.88
2022-08-03T08:19:05.150Z,58.98
2022-08-03T08:20:05.172Z,58.75
2022-08-03T08:21:05.126Z,58.65
2022-08-03T08:22:05.136Z,58.36
2022-08-03T08:23:10.274Z,57.97
2022-08-03T08:24:09.447Z,57.84
2022-08-03T08:25:05.094Z,57.54
2022-08-03T08:26:05.080Z,57.12
2022-08-03T08:27:05.066Z,56.99
2022-08-03T08:28:29.233Z,56.30
2022-08-03T08:29:05.050Z,56.20
2022-08-03T08:30:11.447Z,56.07
2022-08-03T08:31:05.030Z,55.58
2022-08-03T08:32:05.041Z,55.58
2022-08-03T08:33:04.986Z,55.58
2022-08-03T08:34:05.219Z,55.45
2022-08-03T08:35:04.991Z,55.15
2022-08-03T08:36:04.960Z,54.27
2022-08-03T08:37:04.940Z,54.36
2022-08-03T08:38:05.931Z,54.36
2022-08-03T08:39:05.035Z,54.36
2022-08-03T08:40:04.962Z,54.27
2022-08-03T08:41:04.896Z,53.87
2022-08-03T08:42:04.899Z,53.64
2022-08-03T08:43:04.892Z,53.85
2022-08-03T08:44:04.875Z,53.52
2022-08-03T08:45:04.876Z,53.33
2022-08-03T08:46:04.882Z,53.39
2022-08-03T08:47:04.840Z,52.80
2022-08-03T08:48:08.215Z,52.61
2022-08-03T08:49:05.095Z,52.19
2022-08-03T08:50:10.247Z,51.89
2022-08-03T08:51:04.804Z,52.11
2022-08-03T08:52:04.804Z,52.39
2022-08-03T08:53:04.810Z,52.39
2022-08-03T08:54:04.786Z,51.30
2022-08-03T08:55:04.788Z,51.57
2022-08-03T08:56:04.759Z,50.85
2022-08-03T08:57:16.245Z,50.56
2022-08-03T08:58:04.720Z,50.04
2022-08-03T08:59:04.708Z,49.85
2022-08-03T09:00:04.755Z,48.83
2022-08-03T09:01:04.800Z,47.83
2022-08-03T09:02:04.727Z,48.25
2022-08-03T09:03:04.665Z,48.52
2022-08-03T09:04:04.665Z,48.44
2022-08-03T09:05:07.530Z,48.52
2022-08-03T09:06:04.647Z,48.52
2022-08-03T09:07:19.662Z,48.42
2022-08-03T09:08:04.610Z,48.00
2022-08-03T09:09:04.613Z,47.69
2022-08-03T09:10:11.419Z,46.78
2022-08-03T09:12:40.567Z,45.75
2022-08-03T09:13:16.241Z,45.43
2022-08-03T09:14:37.103Z,45.04
2022-08-03T09:15:17.376Z,44.62
2022-08-03T09:16:16.188Z,43.43
2022-08-03T09:17:17.567Z,42.84
2022-08-03T09:18:16.166Z,42.37
2022-08-03T09:19:16.179Z,42.79
2022-08-03T09:20:16.177Z,43.37
2022-08-03T09:21:30.754Z,43.57
2022-08-03T09:22:16.127Z,43.57
2022-08-03T09:23:51.890Z,43.13
2022-08-03T09:24:31.192Z,42.11
2022-08-03T09:25:24.354Z,41.07
2022-08-03T09:26:16.099Z,39.65
2022-08-03T09:27:16.267Z,38.02
2022-08-03T09:28:56.407Z,36.80
2022-08-03T09:29:16.058Z,35.88
2022-08-03T09:30:33.534Z,34.87
2022-08-03T09:31:16.056Z,34.67
2022-08-03T09:32:16.233Z,34.08
2022-08-03T09:33:16.029Z,33.67
2022-08-03T09:34:16.077Z,33.57
2022-08-03T09:35:16.084Z,33.07
2022-08-03T09:36:15.976Z,32.97
2022-08-03T09:37:16.318Z,32.67
2022-08-03T09:38:15.965Z,32.37
2022-08-03T09:39:15.977Z,32.67
2022-08-03T09:40:15.993Z,32.99
2022-08-03T09:41:15.939Z,33.28
2022-08-03T09:42:15.913Z,33.28
2022-08-03T09:43:15.961Z,33.69
2022-08-03T09:44:24.128Z,33.46
2022-08-03T09:45:15.890Z,33.09
2022-08-03T09:46:15.884Z,33.59
2022-08-03T09:47:16.212Z,34.32
2022-08-03T09:48:15.858Z,34.11
2022-08-03T09:49:15.874Z,33.18
2022-08-03T09:50:15.841Z,32.26
2022-08-03T09:51:33.041Z,31.05
2022-08-03T09:52:49.304Z,30.14
2022-08-03T09:53:15.832Z,29.42
2022-08-03T09:54:20.572Z,28.51
2022-08-03T09:56:30.971Z,27.80
2022-08-03T09:56:41.067Z,26.90
2022-08-03T09:57:16.096Z,26.81
2022-08-03T09:58:15.771Z,26.71
2022-08-03T09:59:15.764Z,26.50
2022-08-03T10:00:15.763Z,26.31
2022-08-03T10:01:23.991Z,26.50
2022-08-03T10:02:15.741Z,26.39
2022-08-03T10:03:15.726Z,25.98
2022-08-03T10:04:15.722Z,25.59
2022-08-03T10:05:19.431Z,25.09
2022-08-03T10:06:15.716Z,24.88
2022-08-03T10:07:15.745Z,24.89
2022-08-03T10:08:15.697Z,25.51
2022-08-03T10:09:15.688Z,25.60
2022-08-03T10:10:30.318Z,25.41
2022-08-03T10:11:15.756Z,25.41
2022-08-03T10:12:15.648Z,25.61
2022-08-03T10:13:15.672Z,25.71
2022-08-03T10:14:15.642Z,25.92
2022-08-03T10:16:21.275Z,26.21
2022-08-03T10:16:29.663Z,26.10
2022-08-03T10:17:15.797Z,25.51
2022-08-03T10:18:15.621Z,25.20
2022-08-03T10:19:15.717Z,25.01
2022-08-03T10:20:15.598Z,24.70
2022-08-03T10:21:22.121Z,24.62
2022-08-03T10:22:15.573Z,24.71
2022-08-03T10:23:15.564Z,24.51
2022-08-03T10:24:15.546Z,24.30
2022-08-03T10:25:15.540Z,24.19
2022-08-03T10:26:15.541Z,23.99
2022-08-03T10:27:15.809Z,23.68
2022-08-03T10:28:15.525Z,23.30
2022-08-03T10:29:15.531Z,23.32
2022-08-03T10:30:15.500Z,23.71
2022-08-03T10:31:15.493Z,23.91
2022-08-03T10:32:15.500Z,23.91
2022-08-03T10:33:52.066Z,24.30
2022-08-03T10:34:15.513Z,24.22
2022-08-03T10:35:20.326Z,24.73
2022-08-03T10:36:15.452Z,24.63
2022-08-03T10:37:15.464Z,24.54
2022-08-03T10:38:15.437Z,24.32
2022-08-03T10:39:16.349Z,23.91
2022-08-03T10:40:33.295Z,23.42
2022-08-03T10:41:15.428Z,23.33
2022-08-03T10:42:15.462Z,23.41
2022-08-03T10:43:15.408Z,23.22
2022-08-03T10:44:15.415Z,23.00
2022-08-03T10:45:15.391Z,22.81
2022-08-03T10:46:15.369Z,22.61
2022-08-03T10:47:15.456Z,23.23
2022-08-03T10:48:15.381Z,23.62
2022-08-03T10:49:15.387Z,24.74
2022-08-03T10:50:15.372Z,25.95
2022-08-03T10:51:21.863Z,26.95
2022-08-03T10:52:33.688Z,26.86
2022-08-03T10:53:15.346Z,26.54
2022-08-03T10:54:15.339Z,26.86
2022-08-03T10:55:15.308Z,27.15
2022-08-03T10:56:15.315Z,26.54
2022-08-03T10:57:15.531Z,26.34
2022-08-03T10:58:15.282Z,26.03
2022-08-03T10:59:27.989Z,25.62
2022-08-03T11:00:15.296Z,24.91
2022-08-03T11:01:15.390Z,24.82
2022-08-03T11:02:15.263Z,26.24
2022-08-03T11:03:15.261Z,26.73
2022-08-03T11:04:16.959Z,26.62
2022-08-03T11:05:15.249Z,26.13
2022-08-03T11:06:15.239Z,25.83
2022-08-03T11:07:15.401Z,26.04
2022-08-03T11:08:15.218Z,25.93
2022-08-03T11:09:15.238Z,26.23
2022-08-03T11:10:15.221Z,26.03
2022-08-03T11:11:15.228Z,25.53
2022-08-03T11:12:15.183Z,25.13
2022-08-03T11:13:16.907Z,24.63
2022-08-03T11:14:15.186Z,24.32
2022-08-03T11:15:15.192Z,24.43
2022-08-03T11:16:19.802Z,24.32
2022-08-03T11:17:15.197Z,24.13
2022-08-03T11:18:15.152Z,24.02
2022-08-03T11:19:15.197Z,24.02
2022-08-03T11:20:15.140Z,24.10
2022-08-03T11:21:15.153Z,24.02
2022-08-03T11:22:15.140Z,24.02
2022-08-03T11:23:15.123Z,24.63
2022-08-03T11:24:15.119Z,25.24
2022-08-03T11:25:54.099Z,25.73
2022-08-03T11:26:15.101Z,26.34
2022-08-03T11:27:15.121Z,26.43
2022-08-03T11:28:15.087Z,25.64
2022-08-03T11:29:15.068Z,25.04
2022-08-03T11:30:15.071Z,24.62
2022-08-03T11:31:32.674Z,24.01
2022-08-03T11:32:19.429Z,23.11
2022-08-03T11:33:15.054Z,23.13
2022-08-03T11:34:15.027Z,23.53
2022-08-03T11:35:15.048Z,23.53
2022-08-03T11:36:15.039Z,23.62
2022-08-03T11:37:15.036Z,23.92
2022-08-03T11:38:15.016Z,23.92
2022-08-03T11:39:16.734Z,23.42
2022-08-03T11:40:15.009Z,23.12
2022-08-03T11:41:14.981Z,23.11
2022-08-03T11:42:14.978Z,23.02
2022-08-03T11:43:14.956Z,22.81
2022-08-03T11:44:15.017Z,22.60
2022-08-03T11:45:15.010Z,22.00
2022-08-03T11:46:14.963Z,21.81
2022-08-03T11:47:14.949Z,22.42
2022-08-03T11:48:14.942Z,23.12
2022-08-03T11:49:14.976Z,23.32
2022-08-03T11:50:14.922Z,23.32
2022-08-03T11:51:21.413Z,23.22
2022-08-03T11:52:14.910Z,23.21
2022-08-03T11:53:14.953Z,22.81
2022-08-03T11:54:14.898Z,22.81
2022-08-03T11:55:14.871Z,22.72
2022-08-03T11:56:14.925Z,22.72
2022-08-03T11:57:15.314Z,22.31
2022-08-03T11:59:01.744Z,22.30
2022-08-03T11:59:24.222Z,22.10
2022-08-03T12:00:14.871Z,21.81
2022-08-03T12:01:14.834Z,21.72
2022-08-03T12:02:14.840Z,21.42
2022-08-03T12:03:14.980Z,21.31
2022-08-03T12:04:14.861Z,21.01
2022-08-03T12:05:14.804Z,20.90
2022-08-03T12:06:14.828Z,20.90
2022-08-03T12:07:24.444Z,20.51
2022-08-03T12:08:14.842Z,20.21
2022-08-03T12:09:15.765Z,20.11
2022-08-03T12:10:16.822Z,20.11
2022-08-03T12:11:14.794Z,19.82
2022-08-03T12:12:14.780Z,20.00
2022-08-03T12:14:37.372Z,19.83
2022-08-03T12:14:56.071Z,20.12
2022-08-03T12:15:14.776Z,20.12
2022-08-03T12:16:14.759Z,20.42
2022-08-03T12:17:14.739Z,20.43
2022-08-03T12:18:14.772Z,20.53
2022-08-03T12:19:14.723Z,20.64
2022-08-03T12:20:14.748Z,21.02
2022-08-03T12:21:14.736Z,20.73
2022-08-03T12:22:14.723Z,20.63
2022-08-03T12:23:14.733Z,20.92
2022-08-03T12:24:14.708Z,21.53
2022-08-03T12:25:14.682Z,22.23
2022-08-03T12:26:14.722Z,22.24
2022-08-03T12:27:14.681Z,21.84
2022-08-03T12:28:36.912Z,21.64
2022-08-03T12:29:14.679Z,21.23
2022-08-03T12:30:14.678Z,21.03
2022-08-03T12:31:15.168Z,20.82
2022-08-03T12:32:14.641Z,20.43
2022-08-03T12:33:14.646Z,20.03
2022-08-03T12:34:14.638Z,19.73
2022-08-03T12:35:14.642Z,19.93
2022-08-03T12:36:14.639Z,19.93
2022-08-03T12:37:19.269Z,20.04
2022-08-03T12:38:14.603Z,20.23
2022-08-03T12:39:14.630Z,20.12
2022-08-03T12:40:19.336Z,20.23
2022-08-03T12:41:14.625Z,21.04
2022-08-03T12:42:14.612Z,21.94
2022-08-03T12:43:14.580Z,22.45
2022-08-03T12:44:14.571Z,22.25
2022-08-03T12:45:14.602Z,22.66
2022-08-03T12:46:14.561Z,23.36
2022-08-03T12:47:14.557Z,23.75
2022-08-03T12:48:14.539Z,23.77
2022-08-03T12:49:14.643Z,23.77
2022-08-03T12:50:15.313Z,23.96
2022-08-03T12:51:14.530Z,23.44
2022-08-03T12:52:14.502Z,23.65
2022-08-03T12:53:14.495Z,23.54
2022-08-03T12:54:14.508Z,23.66
2022-08-03T12:55:14.557Z,23.55
2022-08-03T12:56:14.470Z,22.94
2022-08-03T12:57:15.842Z,22.63
2022-08-03T12:58:18.849Z,21.74
2022-08-03T12:59:14.456Z,21.14
2022-08-03T13:00:21.652Z,20.95
2022-08-03T13:01:20.965Z,20.85
2022-08-03T13:02:14.470Z,21.05
2022-08-03T13:03:39.134Z,21.34
2022-08-03T13:04:18.271Z,21.24
2022-08-03T13:05:14.399Z,21.44
2022-08-03T13:06:14.444Z,22.05
2022-08-03T13:07:14.679Z,22.05
2022-08-03T13:08:14.393Z,22.04
2022-08-03T13:09:15.026Z,21.55
2022-08-03T13:10:14.390Z,21.35
2022-08-03T13:11:14.361Z,21.14
2022-08-03T13:12:14.356Z,20.64
2022-08-03T13:13:14.371Z,20.34
2022-08-03T13:14:19.776Z,20.03
2022-08-03T13:15:14.362Z,20.14
2022-08-03T13:16:19.030Z,19.84
2022-08-03T13:17:14.323Z,20.24
2022-08-03T13:18:14.336Z,20.54
2022-08-03T13:19:15.644Z,20.44
2022-08-03T13:20:14.311Z,20.14
2022-08-03T13:21:14.332Z,19.95
2022-08-03T13:22:14.280Z,20.14
2022-08-03T13:23:21.910Z,20.53
2022-08-03T13:24:14.260Z,20.36
2022-08-03T13:25:14.289Z,20.54
2022-08-03T13:26:14.288Z,20.56
2022-08-03T13:28:01.838Z,20.54
2022-08-03T13:28:14.722Z,20.36
2022-08-03T13:29:14.251Z,20.65
2022-08-03T13:30:14.250Z,21.26
2022-08-03T13:31:14.230Z,21.47
2022-08-03T13:32:14.215Z,21.45
2022-08-03T13:33:14.239Z,21.57
2022-08-03T13:34:14.190Z,22.68
2022-08-03T13:35:16.657Z,23.38
2022-08-03T13:36:14.191Z,23.17
2022-08-03T13:37:14.211Z,22.57
2022-08-03T13:38:15.411Z,22.47
2022-08-03T13:39:14.157Z,21.86
2022-08-03T13:40:14.764Z,21.26
2022-08-03T13:41:15.496Z,21.16
2022-08-03T13:42:14.192Z,20.95
2022-08-03T13:43:14.141Z,20.26
2022-08-03T13:44:29.355Z,20.76
2022-08-03T13:45:14.163Z,20.96
2022-08-03T13:46:14.131Z,21.06
2022-08-03T13:47:14.149Z,20.66
2022-08-03T13:48:14.121Z,20.76
2022-08-03T13:49:14.126Z,20.56
2022-08-03T13:50:14.109Z,20.26
2022-08-03T13:51:22.551Z,19.86
2022-08-03T13:52:14.073Z,19.26
2022-08-03T13:53:14.092Z,19.17
2022-08-03T13:54:14.086Z,19.27
2022-08-03T13:55:14.070Z,19.37
2022-08-03T13:56:14.050Z,19.25
2022-08-03T13:58:04.187Z,18.86
2022-08-03T13:58:14.279Z,18.76
2022-08-03T13:59:14.040Z,18.44
2022-08-03T14:00:26.596Z,18.04
2022-08-03T14:01:53.535Z,17.76
2022-08-03T14:02:14.052Z,17.85
2022-08-03T14:03:14.829Z,17.56
2022-08-03T14:04:21.754Z,17.46
2022-08-03T14:05:13.992Z,17.46
2022-08-03T14:06:14.006Z,17.65
2022-08-03T14:07:14.008Z,17.86
2022-08-03T14:08:14.001Z,18.56
2022-08-03T14:09:13.972Z,18.56
2022-08-03T14:10:13.969Z,18.75
2022-08-03T14:11:13.982Z,19.35
2022-08-03T14:12:14.936Z,19.86
2022-08-03T14:13:14.474Z,20.05
2022-08-03T14:14:13.935Z,19.96
2022-08-03T14:15:13.934Z,20.26
2022-08-03T14:16:16.956Z,20.26
2022-08-03T14:17:13.942Z,19.86
2022-08-03T14:18:15.609Z,19.35
2022-08-03T14:19:13.924Z,19.15
2022-08-03T14:20:38.984Z,18.96
2022-08-03T14:21:13.893Z,19.37
2022-08-03T14:22:13.901Z,19.46
2022-08-03T14:23:14.115Z,19.27
2022-08-03T14:24:13.892Z,19.35
2022-08-03T14:25:13.877Z,19.34
2022-08-03T14:26:13.876Z,19.15
2022-08-03T14:27:13.869Z,19.25
2022-08-03T14:28:13.945Z,19.05
2022-08-03T14:29:13.864Z,18.96
2022-08-03T14:30:13.860Z,18.96
2022-08-03T14:32:10.943Z,18.66
2022-08-03T14:32:17.595Z,18.46
2022-08-03T14:33:13.869Z,18.35
2022-08-03T14:34:13.827Z,18.27
2022-08-03T14:35:13.845Z,18.66
2022-08-03T14:36:13.811Z,18.67
2022-08-03T14:37:13.813Z,19.08
2022-08-03T14:38:13.821Z,19.18
2022-08-03T14:39:13.830Z,19.18
2022-08-03T14:40:13.821Z,19.48
2022-08-03T14:41:20.144Z,19.37
2022-08-03T14:42:13.780Z,19.48
2022-08-03T14:43:13.765Z,19.56
2022-08-03T14:44:13.761Z,19.47
2022-08-03T14:45:20.034Z,19.87
2022-08-03T14:46:13.775Z,20.06
2022-08-03T14:47:13.774Z,20.07
2022-08-03T14:50:34.481Z,20.25
2022-08-03T14:50:50.772Z,19.95
2022-08-03T14:50:56.112Z,19.45
2022-08-03T14:51:55.291Z,19.56
2022-08-03T14:52:55.299Z,19.56
2022-08-03T14:53:55.275Z,19.26
2022-08-03T14:54:55.267Z,19.88
2022-08-03T14:55:55.280Z,20.27
2022-08-03T14:56:55.251Z,20.36
2022-08-03T14:57:55.241Z,19.86
2022-08-03T14:58:55.248Z,19.56
2022-08-03T14:59:56.588Z,19.25
2022-08-03T15:00:55.253Z,18.76
2022-08-03T15:02:03.510Z,18.66
2022-08-03T15:02:55.308Z,18.56
2022-08-03T15:03:55.201Z,18.36
2022-08-03T15:04:55.185Z,18.26
2022-08-03T15:05:55.212Z,18.46
2022-08-03T15:06:55.183Z,18.36
2022-08-03T15:07:55.190Z,18.27
2022-08-03T15:09:21.758Z,18.44
2022-08-03T15:09:55.184Z,18.06
2022-08-03T15:10:55.165Z,17.96
2022-08-03T15:11:55.152Z,18.16
2022-08-03T15:12:55.181Z,18.15
2022-08-03T15:13:55.155Z,18.15
2022-08-03T15:14:55.132Z,18.27
2022-08-03T15:15:55.128Z,18.27
2022-08-03T15:16:55.148Z,18.26
2022-08-03T15:17:59.796Z,18.26
2022-08-03T15:18:55.995Z,18.24
2022-08-03T15:20:00.465Z,17.96
2022-08-03T15:20:55.193Z,17.96
2022-08-03T15:21:55.116Z,17.96
2022-08-03T15:22:55.087Z,17.87
2022-08-03T15:23:55.116Z,17.96
2022-08-03T15:24:55.067Z,18.05
2022-08-03T15:26:03.115Z,18.05
2022-08-03T15:26:55.087Z,18.75
2022-08-03T15:28:03.410Z,18.85
2022-08-03T15:28:55.068Z,18.56
2022-08-03T15:30:09.550Z,18.46
